Time;durP1;ratioP1;P1;durP2;ratioP2;P2;SDS_P1;SDS_P2;PMS_P1;PMS_P2;Temp;Humidity;BMP_temperature;BMP_pressure;BME280_temperature;BME280_humidity;BME280_pressure;Samples;Min_cycle;Max_cycle;Signal;HPM_P1;HPM_P2
2023/08/26 00:01:21;;;;;;;7.95;2.90;;;;;;;17.40;99.66;100250.28;7399013;19;20077;-68
2023/08/26 00:03:56;;;;;;;4.20;2.38;;;;;;;17.38;99.61;100241.56;7397545;19;20086;-68
2023/08/26 00:06:24;;;;;;;6.32;3.00;;;;;;;17.37;99.39;100245.16;7398005;19;20011;-68
2023/08/26 00:08:54;;;;;;;5.70;2.75;;;;;;;17.36;99.70;100247.91;7396836;19;20031;-68
2023/08/26 00:11:23;;;;;;;5.90;3.75;;;;;;;17.34;99.49;100242.69;7397239;19;20021;-68
2023/08/26 00:13:51;;;;;;;5.10;3.10;;;;;;;17.33;100.00;100234.84;7397516;19;20074;-68
2023/08/26 00:16:23;;;;;;;5.53;3.05;;;;;;;17.30;100.00;100235.88;7396258;19;20376;-67
2023/08/26 00:18:51;;;;;;;4.93;2.70;;;;;;;17.31;100.00;100234.91;7399148;19;20014;-68
2023/08/26 00:21:21;;;;;;;6.72;2.92;;;;;;;17.31;100.00;100234.06;7398670;19;20006;-67
2023/08/26 00:23:50;;;;;;;6.95;2.90;;;;;;;17.28;100.00;100235.09;7397127;19;20026;-68
2023/08/26 00:26:19;;;;;;;5.47;3.15;;;;;;;17.28;99.98;100228.94;7397344;19;20082;-67
2023/08/26 00:28:48;;;;;;;6.05;3.47;;;;;;;17.25;100.00;100224.69;7398398;19;20018;-68
2023/08/26 00:31:16;;;;;;;6.28;3.67;;;;;;;17.24;100.00;100218.50;7396402;19;20018;-67
2023/08/26 00:33:47;;;;;;;7.85;3.50;;;;;;;17.24;100.00;100221.16;7396989;19;20014;-67
2023/08/26 00:36:16;;;;;;;5.18;3.30;;;;;;;17.24;100.00;100223.81;7396644;19;20023;-68
2023/08/26 00:38:44;;;;;;;5.05;3.00;;;;;;;17.25;100.00;100206.97;7397781;19;20094;-68
2023/08/26 00:41:13;;;;;;;5.82;3.47;;;;;;;17.26;100.00;100213.97;7397954;19;20010;-68
2023/08/26 00:43:41;;;;;;;7.68;3.22;;;;;;;17.26;100.00;100213.09;7395984;19;20023;-68
2023/08/26 00:46:09;;;;;;;5.68;3.15;;;;;;;17.25;100.00;100214.91;7396583;19;20482;-67
2023/08/26 00:48:38;;;;;;;5.38;3.15;;;;;;;17.29;100.00;100222.69;7397308;19;20082;-68
2023/08/26 00:51:09;;;;;;;5.95;3.55;;;;;;;17.29;100.00;100220.91;7397265;19;20010;-68
2023/08/26 00:53:38;;;;;;;7.00;3.47;;;;;;;17.30;100.00;100227.03;7396155;19;20494;-67
2023/08/26 00:56:07;;;;;;;7.53;3.90;;;;;;;17.30;100.00;100225.25;7397108;19;20086;-68
2023/08/26 00:58:37;;;;;;;7.85;3.22;;;;;;;17.32;100.00;100222.50;7397024;19;20018;-68
2023/08/26 01:01:06;;;;;;;6.28;3.10;;;;;;;17.32;100.00;100226.00;7397009;19;20010;-67
2023/08/26 01:03:36;;;;;;;8.48;3.13;;;;;;;17.33;100.00;100226.88;7395868;19;20077;-67
2023/08/26 01:06:04;;;;;;;8.15;3.50;;;;;;;17.33;100.00;100225.06;7395283;19;20010;-66
2023/08/26 01:08:36;;;;;;;6.15;4.20;;;;;;;17.34;100.00;100226.78;7397048;19;20015;-66
2023/08/26 01:11:10;;;;;;;5.68;3.70;;;;;;;17.35;100.00;100230.28;7397441;19;20010;-66
2023/08/26 01:13:47;;;;;;;7.25;3.38;;;;;;;17.36;100.00;100234.66;7394829;19;20015;-65
2023/08/26 01:16:16;;;;;;;6.53;4.18;;;;;;;17.36;100.00;100238.16;7397323;19;20027;-65
2023/08/26 01:18:46;;;;;;;5.68;3.55;;;;;;;17.35;100.00;100241.75;7396688;19;20077;-66
2023/08/26 01:21:16;;;;;;;4.82;3.28;;;;;;;17.36;100.00;100243.47;7395009;19;20019;-65
2023/08/26 01:23:49;;;;;;;5.30;3.53;;;;;;;17.37;100.00;100234.53;7395540;19;20086;-66
2023/08/26 01:26:17;;;;;;;4.47;2.92;;;;;;;17.38;100.00;100233.59;7396081;19;20086;-66
2023/08/26 01:28:46;;;;;;;6.75;3.30;;;;;;;17.41;100.00;100232.56;7394823;19;20037;-66
2023/08/26 01:31:16;;;;;;;4.22;3.05;;;;;;;17.41;100.00;100236.09;7396055;19;20010;-67
2023/08/26 01:33:51;;;;;;;5.68;3.50;;;;;;;17.45;100.00;100233.25;7394878;19;20469;-65
2023/08/26 01:36:23;;;;;;;6.90;3.30;;;;;;;17.47;100.00;100229.56;7396352;19;20018;-65
2023/08/26 01:38:58;;;;;;;5.97;3.72;;;;;;;17.49;100.00;100226.81;7396645;19;20018;-65
2023/08/26 01:41:28;;;;;;;6.05;4.07;;;;;;;17.50;100.00;100228.53;7395696;19;20414;-64
2023/08/26 01:43:58;;;;;;;7.28;3.70;;;;;;;17.52;100.00;100218.69;7395033;19;20019;-63
2023/08/26 01:46:37;;;;;;;10.07;4.00;;;;;;;17.53;100.00;100205.34;7393780;19;20020;-63
2023/08/26 01:49:06;;;;;;;6.70;4.00;;;;;;;17.55;100.00;100208.75;7393957;19;20496;-63
2023/08/26 01:51:35;;;;;;;5.75;3.17;;;;;;;17.58;100.00;100205.06;7395474;19;20078;-64
2023/08/26 01:54:07;;;;;;;8.10;3.92;;;;;;;17.60;100.00;100203.16;7394453;19;20031;-64
2023/08/26 01:56:36;;;;;;;6.35;3.80;;;;;;;17.62;100.00;100205.75;7396188;19;20015;-67
2023/08/26 01:59:05;;;;;;;6.63;4.15;;;;;;;17.64;100.00;100207.38;7393808;19;20019;-66
2023/08/26 02:01:35;;;;;;;5.63;3.83;;;;;;;17.65;100.00;100213.50;7395363;19;20015;-68
2023/08/26 02:04:03;;;;;;;5.55;4.40;;;;;;;17.65;100.00;100210.84;7393267;19;20010;-68
2023/08/26 02:06:32;;;;;;;4.85;3.60;;;;;;;17.66;100.00;100207.25;7394722;19;20078;-68
2023/08/26 02:09:01;;;;;;;6.03;4.00;;;;;;;17.67;100.00;100208.97;7395132;19;20011;-68
2023/08/26 02:11:32;;;;;;;10.35;4.40;;;;;;;17.68;100.00;100200.91;7395220;19;20018;-68
2023/08/26 02:14:01;;;;;;;8.75;4.80;;;;;;;17.70;100.00;100200.81;7394111;19;20035;-68
2023/08/26 02:16:29;;;;;;;7.15;3.85;;;;;;;17.71;100.00;100198.06;7393344;19;20011;-69
2023/08/26 02:18:58;;;;;;;5.35;3.67;;;;;;;17.74;100.00;100195.25;7394710;19;20485;-67
2023/08/26 02:21:26;;;;;;;7.15;3.90;;;;;;;17.79;100.00;100202.06;7395009;19;20031;-67
2023/08/26 02:23:55;;;;;;;7.22;3.67;;;;;;;17.81;100.00;100197.53;7393009;19;20010;-68
2023/08/26 02:26:23;;;;;;;6.65;3.72;;;;;;;17.84;100.00;100205.28;7398642;19;20074;-67
2023/08/26 02:28:54;;;;;;;5.60;3.60;;;;;;;17.85;100.00;100185.78;7402445;19;20078;-67
2023/08/26 02:31:23;;;;;;;7.35;3.97;;;;;;;17.86;100.00;100187.50;7402087;19;20023;-64
2023/08/26 02:33:51;;;;;;;11.30;3.85;;;;;;;17.87;100.00;100183.91;7399486;19;20011;-65
2023/08/26 02:36:20;;;;;;;7.60;3.63;;;;;;;17.85;100.00;100183.13;7399036;19;20481;-65
2023/08/26 02:38:48;;;;;;;4.50;3.67;;;;;;;17.84;100.00;100184.91;7402088;19;20018;-65
2023/08/26 02:41:17;;;;;;;7.45;3.65;;;;;;;17.83;100.00;100182.34;7401893;19;20022;-65
2023/08/26 02:43:45;;;;;;;6.45;3.90;;;;;;;17.82;100.00;100180.63;7398596;19;20351;-65
2023/08/26 02:46:16;;;;;;;6.25;3.75;;;;;;;17.82;100.00;100180.63;7401172;19;20082;-65
2023/08/26 02:48:45;;;;;;;6.00;3.63;;;;;;;17.81;100.00;100174.50;7402216;19;20070;-65
2023/08/26 02:51:13;;;;;;;6.93;3.78;;;;;;;17.80;100.00;100161.31;7401736;19;20023;-65
2023/08/26 02:53:42;;;;;;;5.85;3.88;;;;;;;17.80;100.00;100156.03;7399548;19;20514;-65
2023/08/26 02:56:10;;;;;;;7.25;4.10;;;;;;;17.80;100.00;100174.59;7401572;19;20023;-64
2023/08/26 02:58:38;;;;;;;5.43;4.07;;;;;;;17.80;100.00;100172.78;7401463;19;20006;-65
2023/08/26 03:01:07;;;;;;;11.30;4.00;;;;;;;17.79;100.00;100178.19;7398724;19;20074;-65
2023/08/26 03:03:38;;;;;;;7.50;4.53;;;;;;;17.81;100.00;100178.97;7399103;19;20010;-65
2023/08/26 03:06:07;;;;;;;5.68;4.10;;;;;;;17.81;100.00;100185.09;7397972;19;20417;-65
2023/08/26 03:08:35;;;;;;;12.27;5.20;;;;;;;17.81;100.00;100195.72;7401036;19;20018;-65
2023/08/26 03:13:42;;;;;;;11.85;4.63;;;;;;;17.81;100.00;100190.41;7397931;19;20502;-65
2023/08/26 03:16:12;;;;;;;6.60;4.45;;;;;;;17.82;100.00;100196.56;7400937;19;20074;-65
2023/08/26 03:18:43;;;;;;;7.25;4.75;;;;;;;17.82;100.00;100192.13;7400873;19;20031;-65
2023/08/26 03:21:12;;;;;;;9.00;4.38;;;;;;;17.84;100.00;100199.97;7401125;19;20018;-65
2023/08/26 03:23:40;;;;;;;6.55;4.82;;;;;;;17.86;100.00;100196.28;7400792;19;20082;-66
2023/08/26 03:26:09;;;;;;;7.95;4.60;;;;;;;17.87;100.00;100195.34;7397562;19;20494;-66
2023/08/26 03:28:37;;;;;;;9.13;4.80;;;;;;;17.88;100.00;100193.53;7400499;19;20102;-66
2023/08/26 03:31:06;;;;;;;7.97;5.43;;;;;;;17.89;100.00;100193.47;7400362;19;20473;-66
2023/08/26 03:33:35;;;;;;;7.80;4.90;;;;;;;17.92;100.00;100192.44;7398925;19;20021;-66
2023/08/26 03:36:09;;;;;;;8.52;5.28;;;;;;;17.93;100.00;100183.50;7399220;19;20018;-66
2023/08/26 03:38:37;;;;;;;;;;;;;;;17.95;100.00;100194.91;7398678;19;20015;-66
2023/08/26 03:41:06;;;;;;;7.82;5.63;;;;;;;17.96;100.00;100193.97;7400167;19;19915;-66
2023/08/26 03:43:35;;;;;;;7.50;5.60;;;;;;;17.98;100.00;100213.28;7398348;19;20082;-66
2023/08/26 03:46:06;;;;;;;6.40;5.72;;;;;;;18.00;100.00;100208.75;7399785;19;20011;-66
2023/08/26 03:48:34;;;;;;;9.27;5.55;;;;;;;18.02;100.00;100206.00;7399581;19;20444;-66
2023/08/26 03:51:03;;;;;;;8.25;6.03;;;;;;;18.04;100.00;100196.97;7399747;19;20018;-66
2023/08/26 03:53:35;;;;;;;10.48;6.38;;;;;;;18.05;100.00;100188.06;7398085;19;20477;-66
2023/08/26 03:56:03;;;;;;;11.18;6.03;;;;;;;18.06;100.00;100184.47;7399278;19;20009;-66
2023/08/26 03:58:32;;;;;;;10.52;6.03;;;;;;;18.06;100.00;100197.75;7399509;19;20021;-66
2023/08/26 04:01:04;;;;;;;9.77;6.97;;;;;;;18.07;100.00;100207.44;7399413;19;20033;-66
2023/08/26 04:03:33;;;;;;;9.73;7.05;;;;;;;18.07;100.00;100206.56;7398395;19;20006;-66
2023/08/26 04:06:02;;;;;;;7.13;6.10;;;;;;;18.09;100.00;100209.13;7397401;19;20509;-66
2023/08/26 04:08:34;;;;;;;9.82;6.43;;;;;;;18.08;100.00;100192.34;7398097;19;20011;-66
2023/08/26 04:11:03;;;;;;;15.02;9.07;;;;;;;18.10;100.00;100195.75;7398841;19;20011;-66
2023/08/26 04:13:32;;;;;;;16.85;9.27;;;;;;;18.14;100.00;100188.47;7397526;19;20032;-66
2023/08/26 04:16:03;;;;;;;15.90;8.32;;;;;;;18.14;100.00;100185.81;7398983;19;20027;-66
2023/08/26 04:18:32;;;;;;;11.45;7.22;;;;;;;18.15;100.00;100172.44;7399153;19;20014;-66
2023/08/26 04:21:00;;;;;;;14.65;8.20;;;;;;;18.17;100.00;100167.03;7398350;19;20512;-65
2023/08/26 04:23:29;;;;;;;9.60;7.55;;;;;;;18.18;100.00;100171.41;7397597;19;20423;-66
2023/08/26 04:26:02;;;;;;;8.63;7.35;;;;;;;18.19;100.00;100165.97;7398176;19;20006;-66
2023/08/26 04:28:31;;;;;;;16.60;11.15;;;;;;;18.20;100.00;100180.13;7396996;19;20015;-66
2023/08/26 04:31:00;;;;;;;9.05;7.78;;;;;;;18.22;100.00;100194.13;7398401;19;20021;-65
2023/08/26 04:33:29;;;;;;;10.93;8.02;;;;;;;18.24;100.00;100205.53;7397201;19;20021;-66
2023/08/26 04:35:57;;;;;;;12.93;8.35;;;;;;;18.24;100.00;100201.06;7398197;19;20014;-66
2023/08/26 04:38:26;;;;;;;10.02;7.97;;;;;;;18.26;100.00;100193.03;7396111;19;20018;-66
2023/08/26 04:40:54;;;;;;;11.70;9.32;;;;;;;18.28;100.00;100190.25;7398450;19;20439;-66
2023/08/26 04:43:25;;;;;;;11.48;8.95;;;;;;;18.31;100.00;100187.41;7398205;19;20421;-66
2023/08/26 04:45:55;;;;;;;11.32;8.68;;;;;;;18.32;100.00;100187.28;7397431;19;20482;-66
2023/08/26 04:48:23;;;;;;;8.65;7.75;;;;;;;18.34;100.00;100198.69;7393480;19;20010;-66
2023/08/26 04:50:52;;;;;;;12.40;8.30;;;;;;;18.36;100.00;100202.09;7397206;19;20426;-66
2023/08/26 04:53:20;;;;;;;10.65;7.93;;;;;;;18.38;100.00;100196.69;7396397;19;20014;-66
2023/08/26 04:55:51;;;;;;;10.80;8.05;;;;;;;18.38;100.00;100200.19;7397163;19;20380;-66
2023/08/26 04:58:21;;;;;;;9.00;7.70;;;;;;;18.39;100.00;100209.88;7396091;19;20019;-65
2023/08/26 05:00:52;;;;;;;13.02;9.30;;;;;;;18.39;100.00;100212.53;7396922;19;20010;-65
2023/08/26 05:03:21;;;;;;;14.98;8.85;;;;;;;18.42;100.00;100226.56;7396296;19;20363;-65
2023/08/26 05:06:03;;;;;;;9.40;8.23;;;;;;;18.41;100.00;100217.72;7394859;19;20031;-65
2023/08/26 05:08:32;;;;;;;9.48;7.63;;;;;;;18.42;100.00;100211.47;7395158;19;20015;-65
2023/08/26 05:11:00;;;;;;;10.20;7.72;;;;;;;18.45;100.00;100221.06;7396944;19;20410;-65
2023/08/26 05:13:28;;;;;;;10.68;7.63;;;;;;;18.45;100.00;100229.00;7395573;19;20018;-65
2023/08/26 05:15:59;;;;;;;10.38;8.02;;;;;;;18.46;100.00;100222.75;7396348;19;20014;-65
2023/08/26 05:18:28;;;;;;;10.40;7.95;;;;;;;18.47;100.00;100227.13;7396327;19;20419;-65
2023/08/26 05:20:57;;;;;;;12.65;9.60;;;;;;;18.47;100.00;100235.09;7395103;19;20031;-65
2023/08/26 05:23:25;;;;;;;8.25;7.43;;;;;;;18.48;100.00;100245.63;7395820;19;20017;-65
2023/08/26 05:25:54;;;;;;;8.25;7.20;;;;;;;18.49;100.00;100251.81;7396261;19;20477;-65
2023/08/26 05:28:22;;;;;;;8.55;6.93;;;;;;;18.50;100.00;100258.78;7395147;19;20007;-65
2023/08/26 05:30:51;;;;;;;13.10;7.85;;;;;;;18.51;100.00;100257.84;7395951;19;20033;-66
2023/08/26 05:33:22;;;;;;;11.43;7.43;;;;;;;18.53;100.00;100258.63;7395508;19;20018;-66
2023/08/26 05:35:50;;;;;;;10.85;8.20;;;;;;;18.55;100.00;100254.91;7396757;19;20027;-65
2023/08/26 05:38:19;;;;;;;9.73;7.60;;;;;;;18.58;100.00;100268.94;7396118;19;20019;-66
2023/08/26 05:40:47;;;;;;;11.13;7.47;;;;;;;18.61;100.00;100272.25;7395627;19;20473;-66
2023/08/26 05:43:15;;;;;;;9.55;7.88;;;;;;;18.64;100.00;100274.75;7395254;19;20018;-66
2023/08/26 05:45:44;;;;;;;9.77;7.82;;;;;;;18.67;100.00;100273.69;7395438;19;20351;-65
2023/08/26 05:48:12;;;;;;;8.73;7.55;;;;;;;18.70;100.00;100277.00;7393649;19;20014;-65
2023/08/26 05:50:43;;;;;;;10.98;7.85;;;;;;;18.73;100.00;100284.78;7395180;19;20473;-66
2023/08/26 05:53:12;;;;;;;9.98;7.85;;;;;;;18.78;100.00;100296.91;7394799;19;20031;-66
2023/08/26 05:55:40;;;;;;;11.10;6.82;;;;;;;18.81;100.00;100288.75;7395514;19;20082;-66
2023/08/26 05:58:09;;;;;;;11.98;6.70;;;;;;;18.83;100.00;100295.69;7393909;19;20018;-65
2023/08/26 06:00:37;;;;;;;12.18;7.57;;;;;;;18.85;100.00;100306.22;7394471;19;20509;-66
2023/08/26 06:03:06;;;;;;;9.88;6.63;;;;;;;18.89;100.00;100315.69;7394162;19;20018;-65
2023/08/26 06:05:34;;;;;;;7.38;6.15;;;;;;;18.91;100.00;100312.97;7393887;19;20011;-66
2023/08/26 06:08:06;;;;;;;7.40;6.43;;;;;;;18.93;100.00;100314.59;7394110;19;20074;-65
2023/08/26 06:10:35;;;;;;;7.30;6.53;;;;;;;18.94;100.00;100318.94;7393787;19;20381;-66
2023/08/26 06:13:04;;;;;;;14.40;9.32;;;;;;;18.96;100.00;100308.22;7394693;19;20010;-66
2023/08/26 06:15:33;;;;;;;11.25;7.25;;;;;;;18.98;100.00;100308.97;7394836;19;20014;-66
2023/08/26 06:18:03;;;;;;;9.93;7.15;;;;;;;19.00;100.00;100323.84;7392871;19;20018;-65
2023/08/26 06:20:32;;;;;;;8.35;6.00;;;;;;;19.02;100.00;100327.28;7394897;19;20032;-66
2023/08/26 06:23:02;;;;;;;8.50;6.50;;;;;;;19.05;100.00;100326.22;7394046;19;20024;-66
2023/08/26 06:25:33;;;;;;;14.88;9.70;;;;;;;19.08;100.00;100330.50;7394501;19;20485;-66
2023/08/26 06:28:02;;;;;;;25.25;18.20;;;;;;;19.13;100.00;100328.41;7393536;19;20015;-65
2023/08/26 06:30:30;;;;;;;12.75;10.75;;;;;;;19.17;100.00;100329.91;7394690;19;20010;-66
2023/08/26 06:32:59;;;;;;;9.52;6.72;;;;;;;19.23;100.00;100341.97;7393890;19;20359;-66
2023/08/26 06:35:28;;;;;;;9.20;6.72;;;;;;;19.27;100.00;100343.47;7394423;19;20018;-66
2023/08/26 06:37:56;;;;;;;7.07;6.28;;;;;;;19.30;100.00;100341.47;7393911;19;20381;-66
2023/08/26 06:40:25;;;;;;;10.00;7.30;;;;;;;19.34;100.00;100336.81;7394244;19;20015;-66
2023/08/26 06:42:56;;;;;;;8.05;6.95;;;;;;;19.37;100.00;100342.78;7393743;19;20010;-66
2023/08/26 06:45:24;;;;;;;8.65;6.60;;;;;;;19.40;100.00;100336.41;7393809;19;20477;-65
2023/08/26 06:47:53;;;;;;;10.43;6.47;;;;;;;19.41;100.00;100346.09;7392789;19;20019;-65
2023/08/26 06:50:22;;;;;;;9.15;7.05;;;;;;;19.42;100.00;100346.94;7393442;19;20427;-66
2023/08/26 06:52:51;;;;;;;7.15;6.45;;;;;;;19.41;100.00;100355.88;7393349;19;20037;-66
2023/08/26 06:55:20;;;;;;;9.07;6.85;;;;;;;19.40;100.00;100348.84;7393674;19;20015;-66
2023/08/26 06:57:48;;;;;;;9.65;6.78;;;;;;;19.38;100.00;100346.28;7394120;19;20015;-67
2023/08/26 07:00:20;;;;;;;8.48;6.35;;;;;;;19.38;100.00;100348.94;7393454;19;20021;-66
2023/08/26 07:02:49;;;;;;;7.10;5.72;;;;;;;19.36;100.00;100349.03;7392950;19;20015;-66
2023/08/26 07:05:18;;;;;;;8.25;6.47;;;;;;;19.36;100.00;100362.34;7392404;19;20022;-66
2023/08/26 07:07:46;;;;;;;8.55;6.20;;;;;;;19.37;100.00;100363.19;7393186;19;20062;-66
2023/08/26 07:10:15;;;;;;;6.97;6.28;;;;;;;19.39;100.00;100363.13;7393307;19;20485;-66
2023/08/26 07:12:43;;;;;;;9.13;7.32;;;;;;;19.40;100.00;100359.47;7398774;19;20070;-66
2023/08/26 07:15:12;;;;;;;9.18;6.95;;;;;;;19.39;100.00;100350.66;7400506;19;20018;-66
2023/08/26 07:17:44;;;;;;;10.65;7.60;;;;;;;19.42;100.00;100357.56;7397875;19;20014;-67
2023/08/26 07:20:13;;;;;;;10.25;6.50;;;;;;;19.44;100.00;100369.81;7398526;19;20010;-66
2023/08/26 07:22:41;;;;;;;8.85;6.22;;;;;;;19.44;100.00;100372.47;7400226;19;20014;-66
2023/08/26 07:25:11;;;;;;;10.52;7.10;;;;;;;19.44;100.00;100379.63;7400207;19;20372;-67
2023/08/26 07:27:40;;;;;;;8.73;6.78;;;;;;;19.42;100.00;100374.38;7397664;19;20011;-67
2023/08/26 07:30:10;;;;;;;12.35;7.75;;;;;;;19.44;100.00;100379.63;7397794;19;20078;-66
2023/08/26 07:32:38;;;;;;;9.63;6.15;;;;;;;19.42;100.00;100371.72;7398888;19;20431;-66
2023/08/26 07:35:11;;;;;;;10.20;7.03;;;;;;;19.42;100.00;100373.53;7397070;19;20027;-66
2023/08/26 07:37:40;;;;;;;11.48;6.88;;;;;;;19.40;100.00;100364.78;7397735;19;20022;-66
2023/08/26 07:40:15;;;;;;;9.48;6.57;;;;;;;19.36;100.00;100362.34;7399537;19;20035;-66
2023/08/26 07:42:44;;;;;;;8.88;6.57;;;;;;;19.36;100.00;100361.47;7398536;19;20074;-66
2023/08/26 07:45:13;;;;;;;12.63;7.35;;;;;;;19.33;100.00;100374.97;7399242;19;20033;-66
2023/08/26 07:47:43;;;;;;;9.18;7.00;;;;;;;19.30;100.00;100376.03;7398959;19;20031;-66
2023/08/26 07:50:15;;;;;;;8.90;7.00;;;;;;;19.28;100.00;100377.09;7396897;19;20477;-66
2023/08/26 07:52:43;;;;;;;10.68;7.05;;;;;;;19.25;100.00;100372.81;7396747;19;20099;-66
2023/08/26 07:55:12;;;;;;;8.18;6.68;;;;;;;19.23;100.00;100364.06;7399589;19;20078;-66
2023/08/26 07:57:40;;;;;;;8.65;6.70;;;;;;;19.24;100.00;100368.44;7399146;19;20028;-66
2023/08/26 08:00:10;;;;;;;7.85;6.53;;;;;;;19.26;100.00;100379.84;7399100;19;20018;-66
2023/08/26 08:02:39;;;;;;;11.13;7.38;;;;;;;19.28;100.00;100385.91;7398091;19;20018;-66
2023/08/26 08:05:08;;;;;;;7.20;6.13;;;;;;;19.29;100.00;100379.63;7397831;19;20034;-66
2023/08/26 08:07:39;;;;;;;7.70;6.03;;;;;;;19.32;100.00;100382.13;7398738;19;20024;-66
2023/08/26 08:10:09;;;;;;;8.18;5.43;;;;;;;19.36;100.00;100388.06;7398919;19;20070;-66
2023/08/26 08:12:37;;;;;;;8.27;5.88;;;;;;;19.40;100.00;100380.75;7396000;19;20014;-66
2023/08/26 08:15:07;;;;;;;8.43;5.47;;;;;;;19.45;100.00;100375.97;7398768;19;20031;-66
2023/08/26 08:17:35;;;;;;;7.38;5.65;;;;;;;19.50;100.00;100388.06;7398617;19;20022;-66
2023/08/26 08:20:05;;;;;;;7.35;5.30;;;;;;;19.56;100.00;100380.63;7396508;19;20481;-66
2023/08/26 08:22:41;;;;;;;8.32;5.55;;;;;;;19.58;100.00;100384.88;7397815;19;20027;-66
2023/08/26 08:25:11;;;;;;;6.88;4.85;;;;;;;19.60;100.00;100380.34;7397875;19;20014;-66
2023/08/26 08:27:41;;;;;;;8.07;5.20;;;;;;;19.64;100.00;100371.19;7397518;19;20478;-66
2023/08/26 08:30:10;;;;;;;9.63;5.82;;;;;;;19.68;100.00;100372.69;7396903;19;20445;-65
2023/08/26 08:32:39;;;;;;;6.53;4.30;;;;;;;19.72;100.00;100378.66;7395908;19;20070;-66
2023/08/26 08:35:08;;;;;;;6.15;4.43;;;;;;;19.78;100.00;100372.94;7397237;19;20018;-66
2023/08/26 08:37:40;;;;;;;5.93;4.40;;;;;;;19.88;100.00;100373.22;7395016;19;20498;-66
2023/08/26 08:40:09;;;;;;;6.72;4.18;;;;;;;19.95;100.00;100379.81;7397015;19;20354;-66
2023/08/26 08:42:42;;;;;;;5.50;3.95;;;;;;;20.06;100.00;100389.75;7397111;19;20014;-66
2023/08/26 08:45:13;;;;;;;6.97;4.22;;;;;;;20.19;100.00;100387.09;7397495;19;20045;-66
2023/08/26 08:47:41;;;;;;;10.10;4.38;;;;;;;20.32;100.00;100382.66;7395850;19;20010;-66
2023/08/26 08:50:11;;;;;;;3.85;3.47;;;;;;;20.43;100.00;100373.91;7394903;19;20014;-66
2023/08/26 08:52:45;;;;;;;6.15;3.80;;;;;;;20.53;100.00;100374.13;7395978;19;20490;-66
2023/08/26 08:55:13;;;;;;;4.00;3.60;;;;;;;20.59;99.15;100373.72;7396660;19;20343;-67
2023/08/26 08:57:43;;;;;;;4.85;2.85;;;;;;;20.61;98.42;100369.13;7396413;19;20022;-66
2023/08/26 09:00:13;;;;;;;3.45;3.15;;;;;;;20.63;98.08;100385.84;7396761;19;20014;-66
2023/08/26 09:02:42;;;;;;;6.88;3.47;;;;;;;20.70;97.82;100383.63;7396348;19;20505;-66
2023/08/26 09:05:12;;;;;;;4.97;3.40;;;;;;;20.80;97.18;100384.72;7396389;19;20033;-66
2023/08/26 09:07:44;;;;;;;5.07;3.92;;;;;;;20.89;97.08;100391.22;7396175;19;20078;-65
2023/08/26 09:10:13;;;;;;;5.20;3.17;;;;;;;21.01;96.81;100393.97;7394965;19;20077;-67
2023/08/26 09:12:42;;;;;;;3.97;3.30;;;;;;;21.10;96.73;100387.97;7395968;19;20036;-65
2023/08/26 09:15:11;;;;;;;5.05;3.20;;;;;;;21.17;95.80;100399.91;7393969;19;20002;-66
2023/08/26 09:17:46;;;;;;;4.18;3.08;;;;;;;21.22;94.84;100405.75;7396498;19;20074;-66
2023/08/26 09:20:14;;;;;;;6.50;4.80;;;;;;;21.29;95.15;100398.16;7394193;19;20397;-66
2023/08/26 09:22:46;;;;;;;4.20;3.80;;;;;;;21.36;95.26;100391.41;7395535;19;20018;-66
2023/08/26 09:25:14;;;;;;;3.70;3.40;;;;;;;21.43;95.40;100399.81;7396428;19;20014;-65
2023/08/26 09:27:45;;;;;;;5.15;3.10;;;;;;;21.46;94.36;100397.78;7395338;19;20494;-65
2023/08/26 09:30:21;;;;;;;7.53;3.65;;;;;;;21.51;93.69;100392.13;7393514;19;20011;-66
2023/08/26 09:32:52;;;;;;;3.88;3.40;;;;;;;21.55;93.01;100392.75;7395140;19;20021;-66
2023/08/26 09:35:21;;;;;;;5.43;3.30;;;;;;;21.53;91.63;100403.50;7396129;19;20011;-66
2023/08/26 09:37:59;;;;;;;5.57;3.75;;;;;;;21.49;88.81;100399.38;7393648;19;20027;-66
2023/08/26 09:40:28;;;;;;;5.05;4.20;;;;;;;21.49;90.26;100410.06;7397065;19;20018;-66
2023/08/26 09:42:57;;;;;;;5.63;4.95;;;;;;;21.51;90.25;100409.94;7394640;19;20502;-68
2023/08/26 09:45:26;;;;;;;5.47;4.78;;;;;;;21.54;90.18;100415.06;7395944;19;20015;-66
2023/08/26 09:47:57;;;;;;;6.72;5.65;;;;;;;21.57;88.74;100420.19;7393355;19;20166;-66
2023/08/26 09:50:33;;;;;;;10.95;6.60;;;;;;;21.60;85.83;100409.31;7393532;19;20031;-66
2023/08/26 09:53:04;;;;;;;5.95;5.35;;;;;;;21.66;87.18;100400.84;7394992;19;20011;-66
2023/08/26 09:55:32;;;;;;;8.95;5.88;;;;;;;21.72;86.88;100419.06;7392998;19;20485;-65
2023/08/26 09:58:01;;;;;;;9.48;7.15;;;;;;;21.76;85.72;100409.00;7394927;19;20482;-65
2023/08/26 10:00:30;;;;;;;7.13;6.18;;;;;;;21.78;83.27;100420.44;7394513;19;20010;-65
2023/08/26 10:03:02;;;;;;;9.93;6.20;;;;;;;21.81;83.87;100406.84;7392626;19;20477;-65
2023/08/26 10:05:33;;;;;;;9.15;6.97;;;;;;;21.85;84.64;100408.34;7393665;19;20025;-65
2023/08/26 10:08:11;;;;;;;8.02;5.80;;;;;;;21.91;82.58;100405.22;7395141;19;20098;-65
2023/08/26 10:10:53;;;;;;;8.93;6.10;;;;;;;21.97;82.16;100404.72;7393180;19;20010;-65
2023/08/26 10:13:25;;;;;;;9.85;6.00;;;;;;;22.03;83.43;100400.75;7394346;19;20074;-65
2023/08/26 10:15:55;;;;;;;8.38;5.93;;;;;;;22.10;82.76;100409.16;7394112;19;20369;-66
2023/08/26 10:18:32;;;;;;;6.38;5.75;;;;;;;22.15;79.29;100415.00;7392683;19;20011;-65
2023/08/26 10:21:04;;;;;;;6.82;5.57;;;;;;;22.20;80.97;100420.00;7394888;19;20024;-66
2023/08/26 10:23:35;;;;;;;8.23;6.97;;;;;;;22.26;80.54;100419.53;7393009;19;20015;-65
2023/08/26 10:26:04;;;;;;;9.60;7.32;;;;;;;22.34;80.23;100421.63;7394052;19;20010;-66
2023/08/26 10:28:36;;;;;;;10.05;6.25;;;;;;;22.45;79.40;100419.00;7393618;19;20027;-67
2023/08/26 10:31:09;;;;;;;7.72;6.57;;;;;;;22.57;78.87;100412.72;7394197;19;20022;-66
2023/08/26 10:34:02;;;;;;;7.55;5.65;;;;;;;22.70;78.35;100407.25;7392769;19;20028;-67
2023/08/26 10:36:31;;;;;;;7.17;6.43;;;;;;;22.81;79.57;100413.56;7394290;19;20014;-67
2023/08/26 10:39:02;;;;;;;6.53;4.60;;;;;;;22.83;75.40;100412.47;7392940;19;20399;-67
2023/08/26 10:41:31;;;;;;;8.18;5.10;;;;;;;22.85;76.77;100409.69;7391868;19;20010;-67
2023/08/26 10:44:01;;;;;;;7.18;5.18;;;;;;;22.89;75.42;100412.00;7392498;19;20020;-67
2023/08/26 10:46:34;;;;;;;6.22;4.70;;;;;;;22.92;71.17;100408.22;7396080;19;20384;-66
2023/08/26 10:49:03;;;;;;;5.55;4.43;;;;;;;22.98;73.99;100410.41;7400379;19;20015;-66
2023/08/26 10:51:33;;;;;;;7.18;4.57;;;;;;;23.08;73.26;100399.84;7398781;19;20081;-67
2023/08/26 10:54:08;;;;;;;8.07;3.90;;;;;;;23.19;71.10;100402.53;7399124;19;20022;-67
2023/08/26 10:57:00;;;;;;;5.78;4.15;;;;;;;23.29;69.09;100399.13;7398494;19;20074;-66
2023/08/26 10:59:37;;;;;;;6.05;3.78;;;;;;;23.37;70.57;100392.16;7400387;19;20405;-66
2023/08/26 11:02:09;;;;;;;6.25;3.70;;;;;;;23.48;70.55;100401.13;7401015;19;20094;-67
2023/08/26 11:04:49;;;;;;;5.45;3.28;;;;;;;23.53;68.80;100399.81;7397999;19;20014;-66
2023/08/26 11:07:18;;;;;;;5.70;3.10;;;;;;;23.57;66.50;100395.06;7397881;19;20070;-67
2023/08/26 11:09:50;;;;;;;6.22;2.72;;;;;;;23.62;67.83;100398.19;7398724;19;20021;-66
2023/08/26 11:12:27;;;;;;;5.75;2.80;;;;;;;23.68;63.86;100378.06;7399666;19;20515;-66
2023/08/26 11:14:56;;;;;;;4.35;3.10;;;;;;;23.77;65.97;100398.75;7397549;19;20016;-67
2023/08/26 11:17:24;;;;;;;4.45;2.78;;;;;;;23.80;65.58;100401.16;7399853;19;20019;-66
2023/08/26 11:19:53;;;;;;;4.50;3.08;;;;;;;23.79;64.38;100404.81;7399429;19;20411;-66
2023/08/26 11:22:27;;;;;;;4.38;2.80;;;;;;;23.77;63.17;100406.78;7399603;19;20007;-66
2023/08/26 11:24:58;;;;;;;4.18;2.55;;;;;;;23.74;62.40;100394.47;7400341;19;20014;-66
2023/08/26 11:27:26;;;;;;;6.53;3.13;;;;;;;23.77;62.93;100390.72;7400020;19;20031;-67
2023/08/26 11:29:55;;;;;;;5.15;2.95;;;;;;;23.82;63.51;100396.53;7397526;19;20023;-67
2023/08/26 11:32:23;;;;;;;4.05;3.17;;;;;;;23.89;63.28;100395.03;7399378;19;20419;-66